Time;durP1;ratioP1;P1;durP2;ratioP2;P2;SDS_P1;SDS_P2;PMS_P1;PMS_P2;Temp;Humidity;BMP_temperature;BMP_pressure;BME280_temperature;BME280_humidity;BME280_pressure;Samples;Min_cycle;Max_cycle;Signal;HPM_P1;HPM_P2
2022/03/14 00:01:16;;;;;;;;;;;7.50;99.90;;;;;;4864283;29;20099;-84
2022/03/14 00:04:00;;;;;;;;;;;7.30;99.90;;;;;;4869191;29;19932;-84
2022/03/14 00:06:28;;;;;;;;;;;7.00;99.90;;;;;;4890026;29;19935;-83
2022/03/14 00:09:08;;;;;;;;;;;7.10;99.90;;;;;;4887513;29;19938;-85
2022/03/14 00:11:36;;;;;;;;;;;7.40;99.90;;;;;;4869868;29;19932;-84
2022/03/14 00:14:14;;;;;;;;;;;7.20;99.90;;;;;;4879081;29;19935;-85
2022/03/14 00:16:52;;;;;;;;;;;7.00;99.90;;;;;;4871748;29;19931;-85
2022/03/14 00:19:39;;;;;;;;;;;7.20;99.90;;;;;;4876550;29;19932;-84
2022/03/14 00:22:20;;;;;;;;;;;7.30;99.90;;;;;;4860037;29;19939;-85
2022/03/14 00:24:50;;;;;;;;;;;7.40;99.90;;;;;;4850138;29;19934;-85
2022/03/14 00:27:21;;;;;;;;;;;7.20;99.90;;;;;;4844682;29;19928;-82
2022/03/14 00:29:49;;;;;;;;;;;7.20;99.90;;;;;;4856348;29;19928;-84
2022/03/14 00:32:21;;;;;;;;;;;7.30;99.90;;;;;;4853553;29;19928;-84
2022/03/14 00:34:49;;;;;;;;;;;7.10;99.90;;;;;;4877329;29;19928;-83
2022/03/14 00:37:22;;;;;;;;;;;7.10;99.90;;;;;;4854906;29;19928;-84
2022/03/14 00:39:52;;;;;;;;;;;5.50;99.90;;;;;;4866800;29;19935;-83
2022/03/14 00:42:21;;;;;;;;;;;5.90;99.90;;;;;;4852867;29;19924;-83
2022/03/14 00:44:54;;;;;;;;;;;7.10;99.90;;;;;;4829660;29;19939;-84
2022/03/14 00:47:35;;;;;;;;;;;7.10;99.90;;;;;;4859072;29;19938;-84
2022/03/14 00:50:06;;;;;;;;;;;7.10;99.90;;;;;;4857176;29;20462;-84
2022/03/14 00:52:36;;;;;;;;;;;7.10;99.90;;;;;;4859988;29;19938;-84
2022/03/14 00:55:08;;;;;;;;;;;7.10;99.90;;;;;;4867656;29;19932;-85
2022/03/14 00:57:46;;;;;;;;;;;7.00;99.90;;;;;;4856706;29;21627;-84
2022/03/14 01:00:14;;;;;;;;;;;7.10;99.90;;;;;;4866960;29;19946;-83
2022/03/14 01:02:50;;;;;;;;;;;7.10;99.90;;;;;;4848706;29;19939;-83
2022/03/14 01:05:21;;;;;;;;;;;7.10;99.90;;;;;;4872721;29;19913;-83
2022/03/14 01:07:52;;;;;;;;;;;7.20;99.90;;;;;;4857095;29;19928;-83
2022/03/14 01:10:21;;;;;;;;;;;7.20;99.90;;;;;;4839803;29;19932;-84
2022/03/14 01:12:51;;;;;;;;;;;7.50;99.90;;;;;;4873890;29;19923;-84
2022/03/14 01:15:22;;;;;;;;;;;7.30;99.90;;;;;;4845372;29;19945;-80
2022/03/14 01:17:55;;;;;;;;;;;7.50;99.90;;;;;;4854284;29;19955;-83
2022/03/14 01:20:24;;;;;;;;;;;7.90;99.90;;;;;;4830328;29;19929;-82
2022/03/14 01:23:02;;;;;;;;;;;7.60;99.90;;;;;;4876630;29;19936;-83
2022/03/14 01:25:36;;;;;;;;;;;7.60;99.90;;;;;;4874148;29;19931;-80
2022/03/14 01:28:04;;;;;;;;;;;8.00;99.90;;;;;;4860982;29;19932;-82
2022/03/14 01:30:43;;;;;;;;;;;7.80;99.90;;;;;;4858430;29;19934;-81
2022/03/14 01:33:14;;;;;;;;;;;8.10;99.90;;;;;;4873560;29;19932;-81
2022/03/14 01:35:44;;;;;;;;;;;8.00;99.90;;;;;;4862289;29;19942;-83
2022/03/14 01:38:14;;;;;;;;;;;8.00;99.90;;;;;;4868266;29;19932;-82
2022/03/14 01:40:41;;;;;;;;;;;8.00;99.90;;;;;;4871638;29;20286;-82
2022/03/14 01:43:11;;;;;;;;;;;8.20;99.90;;;;;;4871220;29;19928;-81
2022/03/14 01:45:39;;;;;;;;;;;8.40;99.90;;;;;;4876218;29;19928;-82
2022/03/14 01:48:08;;;;;;;;;;;8.20;99.90;;;;;;4889495;29;19928;-82
2022/03/14 01:50:42;;;;;;;;;;;8.20;99.90;;;;;;4861628;29;19943;-85
2022/03/14 01:53:11;;;;;;;;;;;8.20;99.90;;;;;;4862392;29;19929;-84
2022/03/14 01:55:40;;;;;;;;;;;8.20;99.90;;;;;;4879264;29;19928;-83
2022/03/14 01:58:16;;;;;;;;;;;8.70;99.90;;;;;;4891201;29;19927;-86
2022/03/14 02:00:45;;;;;;;;;;;7.40;99.90;;;;;;4888852;29;19938;-87
2022/03/14 02:03:20;;;;;;;;;;;8.30;99.90;;;;;;4885691;29;19928;-84
2022/03/14 02:05:48;;;;;;;;;;;8.30;99.90;;;;;;4856450;29;19928;-84
2022/03/14 02:08:21;;;;;;;;;;;8.60;99.90;;;;;;4888557;29;19938;-84
2022/03/14 02:10:56;;;;;;;;;;;8.30;99.90;;;;;;4886017;29;19936;-85
2022/03/14 02:13:25;;;;;;;;;;;8.40;99.90;;;;;;4865363;29;19931;-84
2022/03/14 02:15:53;;;;;;;;;;;8.30;99.90;;;;;;4869173;29;20543;-85
2022/03/14 02:18:23;;;;;;;;;;;8.30;99.90;;;;;;4856091;29;19936;-85
2022/03/14 02:20:54;;;;;;;;;;;8.20;99.90;;;;;;4870933;29;19939;-85
2022/03/14 02:23:24;;;;;;;;;;;8.20;99.90;;;;;;4911815;23;19931;-91
2022/03/14 02:25:53;;;;;;;;;;;8.20;99.90;;;;;;4926875;29;20630;-88
2022/03/14 02:28:22;;;;;;;;;;;8.20;99.90;;;;;;4912374;29;19938;-89
2022/03/14 02:30:50;;;;;;;;;;;8.20;99.90;;;;;;4929503;29;19937;-89
2022/03/14 02:33:18;;;;;;;;;;;8.20;99.90;;;;;;4924182;29;19931;-89
2022/03/14 02:35:46;;;;;;;;;;;8.20;99.90;;;;;;4927589;29;19931;-89
2022/03/14 02:38:19;;;;;;;;;;;8.20;99.90;;;;;;4922003;29;19952;-89
2022/03/14 02:40:48;;;;;;;;;;;8.20;99.90;;;;;;4914278;29;19931;-87
2022/03/14 02:43:20;;;;;;;;;;;8.20;99.90;;;;;;4933048;29;19931;-88
2022/03/14 02:45:47;;;;;;;;;;;8.10;99.90;;;;;;4933761;29;20268;-87
2022/03/14 02:48:23;;;;;;;;;;;8.10;99.90;;;;;;4934453;29;19934;-86
2022/03/14 02:50:53;;;;;;;;;;;8.00;99.90;;;;;;4918675;29;19934;-85
2022/03/14 02:53:21;;;;;;;;;;;8.00;99.90;;;;;;4951483;29;20286;-86
2022/03/14 02:55:49;;;;;;;;;;;7.90;99.90;;;;;;4932596;29;19934;-86
2022/03/14 02:58:16;;;;;;;;;;;7.90;99.90;;;;;;4927434;29;19927;-88
2022/03/14 03:00:44;;;;;;;;;;;7.80;99.90;;;;;;4920401;29;20503;-87
2022/03/14 03:03:11;;;;;;;;;;;7.70;99.90;;;;;;4930753;29;19934;-87
2022/03/14 03:05:43;;;;;;;;;;;7.70;99.90;;;;;;4926766;29;19946;-87
2022/03/14 03:08:12;;;;;;;;;;;7.60;99.90;;;;;;4932714;29;20406;-86
2022/03/14 03:10:41;;;;;;;;;;;7.60;99.90;;;;;;4928659;29;19939;-87
2022/03/14 03:13:12;;;;;;;;;;;7.50;99.90;;;;;;4935838;29;19934;-87
2022/03/14 03:15:39;;;;;;;;;;;7.50;99.90;;;;;;4927552;29;19938;-89
2022/03/14 03:18:08;;;;;;;;;;;7.40;99.90;;;;;;4934446;29;20672;-89
2022/03/14 03:20:36;;;;;;;;;;;7.40;99.90;;;;;;4934273;29;19927;-90
2022/03/14 03:23:04;;;;;;;;;;;7.40;99.90;;;;;;4917985;29;19927;-90
2022/03/14 03:25:35;;;;;;;;;;;7.30;99.90;;;;;;4934481;29;19927;-90
2022/03/14 03:28:03;;;;;;;;;;;7.30;99.90;;;;;;4934428;29;19927;-90
2022/03/14 03:30:31;;;;;;;;;;;7.30;99.90;;;;;;4931425;29;19934;-90
2022/03/14 03:32:59;;;;;;;;;;;7.30;99.90;;;;;;4909676;29;19930;-90
2022/03/14 03:35:26;;;;;;;;;;;7.30;99.90;;;;;;4906527;29;19931;-90
2022/03/14 03:37:54;;;;;;;;;;;7.20;99.90;;;;;;4932432;29;19931;-88
2022/03/14 03:40:22;;;;;;;;;;;7.20;99.90;;;;;;4940803;28;19937;-90
2022/03/14 03:42:53;;;;;;;;;;;7.20;99.90;;;;;;4933669;29;19927;-89
2022/03/14 03:45:21;;;;;;;;;;;7.20;99.90;;;;;;4933737;29;19938;-90
2022/03/14 03:47:48;;;;;;;;;;;7.20;99.90;;;;;;4918087;29;20184;-89
2022/03/14 03:50:16;;;;;;;;;;;7.20;99.90;;;;;;4930846;29;19931;-88
2022/03/14 03:52:43;;;;;;;;;;;7.20;99.90;;;;;;4933607;29;19926;-87
2022/03/14 03:55:11;;;;;;;;;;;7.20;99.90;;;;;;4950705;29;19927;-89
2022/03/14 03:57:38;;;;;;;;;;;7.20;99.90;;;;;;4917546;29;19931;-88
2022/03/14 04:00:09;;;;;;;;;;;7.20;99.90;;;;;;4932943;29;20415;-88
2022/03/14 04:02:39;;;;;;;;;;;7.10;99.90;;;;;;4937040;29;19926;-88
2022/03/14 04:05:09;;;;;;;;;;;7.10;99.90;;;;;;4937143;29;19926;-88
2022/03/14 04:07:39;;;;;;;;;;;7.10;99.90;;;;;;4929977;29;19943;-88
2022/03/14 04:10:08;;;;;;;;;;;7.00;99.90;;;;;;4938114;29;19927;-88
2022/03/14 04:12:40;;;;;;;;;;;7.00;99.90;;;;;;4918861;29;20509;-87
2022/03/14 04:15:09;;;;;;;;;;;7.00;99.90;;;;;;4936637;29;19954;-89
2022/03/14 04:17:38;;;;;;;;;;;7.00;99.90;;;;;;4951773;29;20392;-88
2022/03/14 04:20:07;;;;;;;;;;;6.90;99.90;;;;;;4934952;29;19934;-88
2022/03/14 04:22:38;;;;;;;;;;;6.90;99.90;;;;;;4935877;29;19926;-89
2022/03/14 04:25:07;;;;;;;;;;;6.90;99.90;;;;;;4948659;29;20302;-90
2022/03/14 04:27:34;;;;;;;;;;;6.90;99.90;;;;;;4937013;29;19927;-88
2022/03/14 04:30:02;;;;;;;;;;;6.90;99.90;;;;;;4952356;29;20107;-87
2022/03/14 04:32:30;;;;;;;;;;;6.80;99.90;;;;;;4930052;29;20303;-88
2022/03/14 04:34:58;;;;;;;;;;;6.90;99.90;;;;;;4937391;29;19950;-89
2022/03/14 04:37:25;;;;;;;;;;;6.80;99.90;;;;;;4948429;29;20366;-88
2022/03/14 04:39:54;;;;;;;;;;;6.80;99.90;;;;;;4935457;29;19927;-89
2022/03/14 04:42:25;;;;;;;;;;;6.80;99.90;;;;;;4936785;29;19934;-89
2022/03/14 04:44:54;;;;;;;;;;;6.80;99.90;;;;;;4936636;29;19927;-88
2022/03/14 04:47:21;;;;;;;;;;;6.70;99.90;;;;;;4936431;29;19927;-89
2022/03/14 04:49:49;;;;;;;;;;;6.80;99.90;;;;;;4935644;29;19950;-87
2022/03/14 04:52:16;;;;;;;;;;;6.70;99.90;;;;;;4950670;29;19938;-89
2022/03/14 04:54:44;;;;;;;;;;;6.70;99.90;;;;;;4936862;29;19927;-87
2022/03/14 04:57:11;;;;;;;;;;;6.70;99.90;;;;;;4935234;29;19926;-87
2022/03/14 04:59:39;;;;;;;;;;;6.70;99.90;;;;;;4951731;29;19934;-88
2022/03/14 05:02:06;;;;;;;;;;;6.70;99.90;;;;;;4919498;29;20507;-88
2022/03/14 05:04:34;;;;;;;;;;;6.60;99.90;;;;;;4925787;29;19927;-89
2022/03/14 05:07:02;;;;;;;;;;;6.60;99.90;;;;;;4934814;29;19934;-88
2022/03/14 05:09:29;;;;;;;;;;;6.60;99.90;;;;;;4935688;29;19926;-88
2022/03/14 05:11:56;;;;;;;;;;;6.50;99.90;;;;;;4935069;29;19931;-88
2022/03/14 05:14:24;;;;;;;;;;;6.50;99.90;;;;;;4935103;29;20379;-89
2022/03/14 05:16:57;;;;;;;;;;;6.50;99.90;;;;;;4950140;29;20123;-88
2022/03/14 05:19:26;;;;;;;;;;;6.50;99.90;;;;;;4936195;29;19927;-87
2022/03/14 05:21:53;;;;;;;;;;;6.40;99.90;;;;;;4929350;29;19927;-88
2022/03/14 05:24:20;;;;;;;;;;;6.40;99.90;;;;;;4936222;29;19930;-89
2022/03/14 05:26:53;;;;;;;;;;;6.40;99.90;;;;;;4927815;29;19949;-87
2022/03/14 05:29:21;;;;;;;;;;;6.40;99.90;;;;;;4936142;29;19927;-88
2022/03/14 05:31:49;;;;;;;;;;;6.40;99.90;;;;;;4903279;29;19927;-89
2022/03/14 05:34:16;;;;;;;;;;;6.30;99.90;;;;;;4935991;29;19931;-88
2022/03/14 05:36:45;;;;;;;;;;;6.30;99.90;;;;;;4936315;29;19938;-88
2022/03/14 05:39:12;;;;;;;;;;;6.30;99.90;;;;;;4934230;29;19934;-88
2022/03/14 05:41:40;;;;;;;;;;;6.30;99.90;;;;;;4935413;29;19934;-89
2022/03/14 05:44:08;;;;;;;;;;;6.30;99.90;;;;;;4935330;29;19935;-88
2022/03/14 05:46:36;;;;;;;;;;;6.20;99.90;;;;;;4933983;29;20141;-88
2022/03/14 05:49:04;;;;;;;;;;;6.20;99.90;;;;;;4934733;29;20013;-88
2022/03/14 05:51:35;;;;;;;;;;;6.20;99.90;;;;;;4935309;29;19927;-90
2022/03/14 05:54:02;;;;;;;;;;;5.90;99.90;;;;;;4934966;29;19950;-88
2022/03/14 05:56:30;;;;;;;;;;;6.10;99.90;;;;;;4937218;29;19927;-87
2022/03/14 05:58:59;;;;;;;;;;;6.10;99.90;;;;;;4918913;29;19927;-88
2022/03/14 06:01:27;;;;;;;;;;;6.00;99.90;;;;;;4932400;29;19927;-89
2022/03/14 06:03:55;;;;;;;;;;;6.00;99.90;;;;;;4943856;29;19941;-88
2022/03/14 06:06:37;;;;;;;;;;;6.00;99.90;;;;;;4935768;29;19937;-88
2022/03/14 06:09:06;;;;;;;;;;;5.90;99.90;;;;;;4935352;29;19931;-88
2022/03/14 06:11:34;;;;;;;;;;;5.50;99.90;;;;;;4936288;29;19927;-88
2022/03/14 06:14:02;;;;;;;;;;;5.80;99.90;;;;;;4935254;29;19926;-88
2022/03/14 06:16:30;;;;;;;;;;;5.80;99.90;;;;;;4939954;29;19926;-89
2022/03/14 06:18:57;;;;;;;;;;;5.80;99.90;;;;;;4941335;29;20397;-88
2022/03/14 06:21:28;;;;;;;;;;;5.80;99.90;;;;;;4940756;29;19938;-87
2022/03/14 06:23:59;;;;;;;;;;;5.80;99.90;;;;;;4950946;29;19930;-87
2022/03/14 06:26:26;;;;;;;;;;;5.80;99.90;;;;;;4952328;29;19942;-90
2022/03/14 06:28:54;;;;;;;;;;;5.80;99.90;;;;;;4949911;29;19917;-88
2022/03/14 06:31:24;;;;;;;;;;;5.80;99.90;;;;;;4951173;29;19927;-85
2022/03/14 06:33:54;;;;;;;;;;;5.80;99.90;;;;;;4947870;29;19921;-87
2022/03/14 06:36:22;;;;;;;;;;;5.80;99.90;;;;;;4954704;28;19927;-87
2022/03/14 06:38:50;;;;;;;;;;;5.80;99.90;;;;;;4937572;29;20262;-87
2022/03/14 06:41:19;;;;;;;;;;;5.80;99.90;;;;;;4935485;29;19931;-87
2022/03/14 06:43:52;;;;;;;;;;;5.80;99.90;;;;;;4950882;28;19927;-88
2022/03/14 06:46:20;;;;;;;;;;;5.80;99.90;;;;;;4941993;29;20354;-88
2022/03/14 06:48:49;;;;;;;;;;;5.80;99.90;;;;;;4942593;29;20334;-88
2022/03/14 06:51:16;;;;;;;;;;;5.80;99.90;;;;;;4935144;28;19942;-87
2022/03/14 06:53:44;;;;;;;;;;;5.80;99.90;;;;;;4930411;29;19927;-87
2022/03/14 06:56:18;;;;;;;;;;;5.70;99.90;;;;;;4937272;29;19931;-86
2022/03/14 06:58:45;;;;;;;;;;;5.90;99.90;;;;;;4937253;29;19938;-89
2022/03/14 07:01:14;;;;;;;;;;;5.40;99.90;;;;;;4940239;29;20321;-87
2022/03/14 07:03:41;;;;;;;;;;;6.00;99.90;;;;;;4935682;29;19927;-87
2022/03/14 07:06:13;;;;;;;;;;;6.00;99.90;;;;;;4937165;29;19927;-88
2022/03/14 07:08:42;;;;;;;;;;;6.00;99.90;;;;;;4932106;29;19927;-87
2022/03/14 07:11:11;;;;;;;;;;;6.10;99.90;;;;;;4920218;29;19938;-86
2022/03/14 07:13:38;;;;;;;;;;;6.00;99.90;;;;;;4938989;29;19934;-87
2022/03/14 07:16:12;;;;;;;;;;;6.10;99.90;;;;;;4938052;29;19930;-89
2022/03/14 07:18:42;;;;;;;;;;;6.10;99.90;;;;;;4939171;29;19961;-91
2022/03/14 07:21:11;;;;;;;;;;;6.20;99.90;;;;;;4927683;29;19928;-89
2022/03/14 07:23:42;;;;;;;;;;;5.40;99.90;;;;;;4937537;29;20382;-86
2022/03/14 07:26:10;;;;;;;;;;;6.50;99.90;;;;;;4934437;29;19926;-85
2022/03/14 07:28:38;;;;;;;;;;;6.30;99.90;;;;;;4945339;29;19931;-89
2022/03/14 07:31:08;;;;;;;;;;;6.30;99.90;;;;;;4937360;29;19942;-86
2022/03/14 07:33:40;;;;;;;;;;;6.20;99.90;;;;;;4931590;29;19927;-89
2022/03/14 07:36:08;;;;;;;;;;;6.40;99.90;;;;;;4936727;29;19935;-86
2022/03/14 07:38:39;;;;;;;;;;;6.50;99.90;;;;;;4944461;29;19927;-89
2022/03/14 07:41:08;;;;;;;;;;;6.60;99.90;;;;;;4939006;29;19938;-89
2022/03/14 07:43:40;;;;;;;;;;;6.60;99.90;;;;;;4945758;29;19938;-87
2022/03/14 07:46:08;;;;;;;;;;;6.70;99.90;;;;;;4948533;29;20433;-88
2022/03/14 07:48:36;;;;;;;;;;;6.70;99.90;;;;;;4949947;29;19923;-87
2022/03/14 07:51:04;;;;;;;;;;;6.80;99.90;;;;;;4945923;29;19934;-88
2022/03/14 07:53:34;;;;;;;;;;;6.90;99.90;;;;;;4911193;29;19935;-89
2022/03/14 07:56:05;;;;;;;;;;;7.00;99.90;;;;;;4942967;29;20231;-89
2022/03/14 07:58:38;;;;;;;;;;;7.00;99.90;;;;;;4944751;29;19926;-90
2022/03/14 08:01:09;;;;;;;;;;;7.10;99.90;;;;;;4925599;29;19927;-89
2022/03/14 08:03:39;;;;;;;;;;;7.20;99.90;;;;;;4927107;29;20344;-90
2022/03/14 08:06:11;;;;;;;;;;;7.30;99.90;;;;;;4940287;29;19926;-89
2022/03/14 08:08:40;;;;;;;;;;;8.20;99.90;;;;;;4951466;29;19927;-88
2022/03/14 08:11:07;;;;;;;;;;;7.50;99.90;;;;;;4939233;29;19934;-91
2022/03/14 08:13:36;;;;;;;;;;;7.60;99.90;;;;;;4936989;29;20127;-88
2022/03/14 08:16:05;;;;;;;;;;;7.70;99.90;;;;;;4943185;29;19930;-91
2022/03/14 08:18:32;;;;;;;;;;;7.80;99.90;;;;;;4944785;29;19943;-90
2022/03/14 08:21:02;;;;;;;;;;;7.90;99.90;;;;;;4940722;29;19931;-90
2022/03/14 08:23:30;;;;;;;;;;;8.00;99.90;;;;;;4930034;29;19927;-90
2022/03/14 08:26:13;;;;;;;;;;;8.10;99.90;;;;;;4922678;29;20244;-91
2022/03/14 08:28:44;;;;;;;;;;;8.20;99.90;;;;;;4931331;29;19927;-92
2022/03/14 08:31:13;;;;;;;;;;;8.30;99.90;;;;;;4949916;29;19938;-91
2022/03/14 08:33:41;;;;;;;;;;;8.40;99.90;;;;;;4950057;29;19931;-91
2022/03/14 08:36:12;;;;;;;;;;;9.60;99.90;;;;;;4966828;29;19952;-91
2022/03/14 08:38:40;;;;;;;;;;;8.50;99.90;;;;;;4932936;29;19927;-90
2022/03/14 08:41:10;;;;;;;;;;;8.60;99.90;;;;;;4926403;29;19922;-91
2022/03/14 08:43:45;;;;;;;;;;;8.80;99.90;;;;;;4923191;29;19939;-90
2022/03/14 08:46:18;;;;;;;;;;;8.70;99.90;;;;;;4946605;29;19934;-91
2022/03/14 08:48:52;;;;;;;;;;;8.80;99.90;;;;;;4943732;29;19934;-91
2022/03/14 08:51:21;;;;;;;;;;;8.80;99.90;;;;;;4946724;29;19927;-91
2022/03/14 08:53:51;;;;;;;;;;;8.90;99.90;;;;;;4943899;29;19935;-90
2022/03/14 08:56:19;;;;;;;;;;;9.00;99.90;;;;;;4916780;29;19954;-91
2022/03/14 08:58:48;;;;;;;;;;;7.40;99.90;;;;;;4944855;29;19926;-91
2022/03/14 09:01:18;;;;;;;;;;;9.20;99.90;;;;;;4945676;28;19931;-91
2022/03/14 09:03:49;;;;;;;;;;;9.20;99.90;;;;;;4928675;29;19933;-90
2022/03/14 09:06:18;;;;;;;;;;;9.30;99.90;;;;;;4926722;29;19931;-92
2022/03/14 09:08:46;;;;;;;;;;;9.40;99.90;;;;;;4943886;29;19926;-91
2022/03/14 09:11:14;;;;;;;;;;;8.60;99.90;;;;;;4944419;29;19927;-91
2022/03/14 09:13:46;;;;;;;;;;;9.50;99.90;;;;;;4941307;29;19927;-92
2022/03/14 09:16:14;;;;;;;;;;;9.80;99.90;;;;;;4907959;29;19926;-92
2022/03/14 09:18:45;;;;;;;;;;;9.60;99.90;;;;;;4939863;29;19927;-91
2022/03/14 09:21:14;;;;;;;;;;;9.50;99.90;;;;;;4937579;29;19927;-91
2022/03/14 09:24:00;;;;;;;;;;;9.80;99.90;;;;;;5076687;28;19916;-92
2022/03/14 09:26:35;;;;;;;;;;;9.20;99.90;;;;;;5061076;28;19925;-90
2022/03/14 09:29:04;;;;;;;;;;;10.00;99.90;;;;;;5059824;28;19921;-91
2022/03/14 09:31:34;;;;;;;;;;;10.00;99.90;;;;;;5065996;28;19929;-92
2022/03/14 09:34:02;;;;;;;;;;;10.10;99.90;;;;;;5051251;28;19925;-91
2022/03/14 09:36:36;;;;;;;;;;;10.20;99.90;;;;;;5064862;28;19935;-92
2022/03/14 09:39:11;;;;;;;;;;;10.20;99.90;;;;;;5041247;28;19929;-91
2022/03/14 09:41:42;;;;;;;;;;;10.30;99.90;;;;;;5029798;28;19925;-92
2022/03/14 09:44:14;;;;;;;;;;;10.40;99.90;;;;;;5058635;28;19925;-91
2022/03/14 09:46:46;;;;;;;;;;;10.50;99.90;;;;;;5048241;28;19925;-91
2022/03/14 09:49:17;;;;;;;;;;;10.50;99.90;;;;;;5062156;28;19936;-91
2022/03/14 09:51:46;;;;;;;;;;;10.60;99.90;;;;;;5069100;28;19935;-92
2022/03/14 09:54:15;;;;;;;;;;;10.20;99.90;;;;;;5052745;28;19929;-92
2022/03/14 09:56:43;;;;;;;;;;;10.80;99.90;;;;;;5050478;28;19936;-92
2022/03/14 09:59:14;;;;;;;;;;;10.90;99.90;;;;;;5039995;28;19936;-91
2022/03/14 10:01:41;;;;;;;;;;;11.00;99.90;;;;;;5053999;28;20424;-91
2022/03/14 10:04:13;;;;;;;;;;;11.10;99.90;;;;;;5042364;28;19936;-91
2022/03/14 10:06:46;;;;;;;;;;;11.20;99.90;;;;;;5071834;28;19928;-92
2022/03/14 10:09:14;;;;;;;;;;;11.30;99.90;;;;;;5060370;28;19925;-92
2022/03/14 10:11:44;;;;;;;;;;;11.20;99.90;;;;;;5059338;28;19925;-91
2022/03/14 10:14:18;;;;;;;;;;;11.40;99.90;;;;;;5043674;28;19925;-92
2022/03/14 10:16:47;;;;;;;;;;;11.50;99.90;;;;;;5059860;28;19940;-93
2022/03/14 10:19:22;;;;;;;;;;;11.60;99.90;;;;;;5043560;28;19936;-93
2022/03/14 10:21:51;;;;;;;;;;;11.70;99.90;;;;;;5049528;28;19929;-92
2022/03/14 10:24:24;;;;;;;;;;;12.00;99.90;;;;;;5043826;28;19932;-92
2022/03/14 10:26:54;;;;;;;;;;;11.80;99.90;;;;;;5044772;28;19935;-94
2022/03/14 10:29:25;;;;;;;;;;;11.90;99.90;;;;;;5076061;28;19928;-92
2022/03/14 10:32:33;;;;;;;;;;;12.00;99.90;;;;;;5068969;28;19925;-93
2022/03/14 10:35:04;;;;;;;;;;;12.10;99.90;;;;;;5039147;28;19925;-92
2022/03/14 10:37:38;;;;;;;;;;;12.20;99.90;;;;;;5013757;28;19936;-93
2022/03/14 10:40:08;;;;;;;;;;;12.30;99.90;;;;;;5045803;28;19925;-93
2022/03/14 10:42:43;;;;;;;;;;;12.40;99.90;;;;;;5026535;28;19935;-94
2022/03/14 10:45:18;;;;;;;;;;;12.50;99.90;;;;;;5023458;28;19925;-92
2022/03/14 10:47:47;;;;;;;;;;;12.00;99.90;;;;;;5028721;28;19940;-93
2022/03/14 10:50:33;;;;;;;;;;;12.60;99.90;;;;;;5014595;28;19935;-92
2022/03/14 10:53:07;;;;;;;;;;;12.40;99.90;;;;;;5009051;28;19930;-92
2022/03/14 10:55:42;;;;;;;;;;;12.90;99.90;;;;;;5040675;28;19939;-93
2022/03/14 10:58:23;;;;;;;;;;;12.80;99.90;;;;;;5047071;28;19925;-91
2022/03/14 11:00:56;;;;;;;;;;;13.20;99.90;;;;;;5029474;28;19952;-91
2022/03/14 11:03:27;;;;;;;;;;;13.20;99.90;;;;;;5023215;28;19925;-92
2022/03/14 11:05:58;;;;;;;;;;;13.40;99.90;;;;;;5026175;28;19977;-91
2022/03/14 11:08:30;;;;;;;;;;;13.50;99.90;;;;;;5045675;28;20020;-92
2022/03/14 11:11:07;;;;;;;;;;;13.50;99.90;;;;;;5026243;28;19929;-91
2022/03/14 11:13:40;;;;;;;;;;;13.40;99.90;;;;;;5045583;28;19932;-92
2022/03/14 11:16:18;;;;;;;;;;;13.50;99.90;;;;;;5012722;28;19925;-92
2022/03/14 11:18:48;;;;;;;;;;;13.50;99.90;;;;;;5025294;28;19936;-92
2022/03/14 11:21:18;;;;;;;;;;;13.50;99.90;;;;;;5059807;28;19925;-92
2022/03/14 11:23:51;;;;;;;;;;;13.50;99.90;;;;;;5025115;28;19929;-92
2022/03/14 11:26:21;;;;;;;;;;;13.50;99.90;;;;;;5048361;28;19925;-92
2022/03/14 11:28:50;;;;;;;;;;;13.40;99.90;;;;;;5026005;28;20290;-92
2022/03/14 11:31:28;;;;;;;;;;;13.40;99.90;;;;;;5049290;28;19938;-91
2022/03/14 11:34:04;;;;;;;;;;;13.40;99.90;;;;;;5051110;28;19935;-91
2022/03/14 11:36:34;;;;;;;;;;;13.30;99.90;;;;;;5044350;28;19932;-92
2022/03/14 11:39:02;;;;;;;;;;;13.30;99.90;;;;;;5037996;28;19919;-91
2022/03/14 11:41:34;;;;;;;;;;;13.20;99.90;;;;;;5058436;28;19925;-92
2022/03/14 11:44:03;;;;;;;;;;;13.20;99.90;;;;;;5027722;28;19929;-92
2022/03/14 11:46:49;;;;;;;;;;;13.20;99.90;;;;;;5053184;28;19931;-92
2022/03/14 11:49:38;;;;;;;;;;;13.20;99.90;;;;;;5050751;28;19951;-91
2022/03/14 11:52:12;;;;;;;;;;;13.10;99.90;;;;;;5044717;28;19935;-91
2022/03/14 11:54:52;;;;;;;;;;;13.10;99.90;;;;;;5050902;28;20299;-93
2022/03/14 11:57:37;;;;;;;;;;;13.10;99.90;;;;;;5039975;28;19925;-91
2022/03/14 12:00:22;;;;;;;;;;;13.10;99.90;;;;;;5028705;28;19925;-87
2022/03/14 12:02:54;;;;;;;;;;;13.10;99.90;;;;;;5031049;28;19925;-91
2022/03/14 12:05:31;;;;;;;;;;;13.20;99.90;;;;;;5046605;28;19929;-91
2022/03/14 12:08:22;;;;;;;;;;;13.10;99.90;;;;;;5039892;28;19925;-91
2022/03/14 12:10:52;;;;;;;;;;;13.20;99.90;;;;;;5044163;28;19936;-89
2022/03/14 12:13:41;;;;;;;;;;;12.90;99.90;;;;;;5049247;28;19928;-88
2022/03/14 12:16:30;;;;;;;;;;;13.40;99.90;;;;;;5037999;28;19929;-88
2022/03/14 12:19:23;;;;;;;;;;;13.20;99.90;;;;;;5054736;28;19925;-89
2022/03/14 12:21:54;;;;;;;;;;;13.30;99.90;;;;;;5035112;28;19925;-90
2022/03/14 12:24:34;;;;;;;;;;;13.30;99.90;;;;;;5044940;28;19925;-93
2022/03/14 12:27:19;;;;;;;;;;;13.40;99.90;;;;;;5057954;28;19925;-92
2022/03/14 12:29:50;;;;;;;;;;;13.50;99.90;;;;;;5028201;28;19925;-91
2022/03/14 12:32:21;;;;;;;;;;;13.60;99.90;;;;;;5047502;28;19928;-92
2022/03/14 12:35:01;;;;;;;;;;;13.70;99.90;;;;;;5045114;28;20319;-87
2022/03/14 12:38:12;;;;;;;;;;;13.80;99.90;;;;;;5046916;28;19940;-90
2022/03/14 12:41:04;;;;;;;;;;;14.00;99.90;;;;;;5029921;28;19936;-90
2022/03/14 12:43:57;;;;;;;;;;;14.10;99.90;;;;;;5037056;28;20006;-88
2022/03/14 12:46:26;;;;;;;;;;;14.10;99.90;;;;;;5033427;28;19932;-89
2022/03/14 12:48:56;;;;;;;;;;;14.20;99.90;;;;;;5031442;28;19925;-90
2022/03/14 12:51:31;;;;;;;;;;;14.20;99.80;;;;;;5047689;28;19959;-90
2022/03/14 12:54:01;;;;;;;;;;;14.00;99.90;;;;;;5032260;28;19925;-92
2022/03/14 12:56:30;;;;;;;;;;;13.90;99.90;;;;;;5030048;28;19936;-94
2022/03/14 12:59:04;;;;;;;;;;;13.90;99.90;;;;;;5027705;28;19929;-93
2022/03/14 13:01:43;;;;;;;;;;;13.70;99.90;;;;;;5033794;28;20244;-90
2022/03/14 13:04:17;;;;;;;;;;;13.50;99.90;;;;;;5040586;28;19922;-91
2022/03/14 13:06:49;;;;;;;;;;;13.30;99.90;;;;;;5025658;28;19973;-88
2022/03/14 13:09:50;;;;;;;;;;;13.30;99.90;;;;;;5035596;28;19914;-92
2022/03/14 13:12:19;;;;;;;;;;;13.20;99.90;;;;;;5041074;28;19936;-92
2022/03/14 13:15:06;;;;;;;;;;;13.30;99.90;;;;;;5023824;28;20422;-92
2022/03/14 13:17:44;;;;;;;;;;;14.20;99.90;;;;;;5043210;28;19924;-91
2022/03/14 13:20:26;;;;;;;;;;;13.40;99.90;;;;;;5053114;28;19928;-91
2022/03/14 13:22:57;;;;;;;;;;;13.60;99.90;;;;;;5027020;28;19926;-91
2022/03/14 13:25:33;;;;;;;;;;;13.70;99.90;;;;;;5021554;28;19936;-91
2022/03/14 13:28:03;;;;;;;;;;;13.50;99.80;;;;;;5033966;28;19931;-92
2022/03/14 13:30:46;;;;;;;;;;;13.90;99.50;;;;;;5054848;28;20389;-91
2022/03/14 13:33:24;;;;;;;;;;;13.80;99.20;;;;;;5034057;28;19914;-92
2022/03/14 13:35:55;;;;;;;;;;;13.70;99.60;;;;;;5033662;28;19916;-91
2022/03/14 13:38:36;;;;;;;;;;;13.80;99.50;;;;;;5031633;28;19913;-91
2022/03/14 13:41:10;;;;;;;;;;;13.80;99.30;;;;;;5055161;28;19939;-90
2022/03/14 13:43:40;;;;;;;;;;;14.30;99.50;;;;;;5054083;28;19916;-90
2022/03/14 13:46:24;;;;;;;;;;;13.90;99.00;;;;;;5028138;28;19941;-87
2022/03/14 13:49:04;;;;;;;;;;;14.00;98.80;;;;;;5032382;28;19921;-91
2022/03/14 13:51:38;;;;;;;;;;;14.00;98.90;;;;;;5061518;28;19931;-91
2022/03/14 13:54:12;;;;;;;;;;;13.60;99.20;;;;;;5026825;28;19949;-91
2022/03/14 13:56:44;;;;;;;;;;;13.80;99.40;;;;;;5048144;28;19929;-90
2022/03/14 13:59:22;;;;;;;;;;;13.90;99.50;;;;;;5008626;28;20442;-89
2022/03/14 14:01:51;;;;;;;;;;;14.00;99.60;;;;;;5024445;28;19929;-89
2022/03/14 14:04:44;;;;;;;;;;;14.00;99.10;;;;;;5041376;28;20642;-87
2022/03/14 14:07:21;;;;;;;;;;;14.70;99.40;;;;;;5024186;28;19930;-91
2022/03/14 14:10:09;;;;;;;;;;;14.10;99.40;;;;;;5030325;28;20070;-92
2022/03/14 14:12:39;;;;;;;;;;;14.00;99.40;;;;;;5043723;28;19931;-93
2022/03/14 14:15:20;;;;;;;;;;;14.00;99.20;;;;;;5019941;28;19929;-91
2022/03/14 14:17:52;;;;;;;;;;;13.40;99.70;;;;;;5058953;28;19925;-92
2022/03/14 14:20:31;;;;;;;;;;;14.00;99.80;;;;;;5041763;28;20247;-94
2022/03/14 14:23:03;;;;;;;;;;;14.20;99.90;;;;;;5036163;28;19925;-93
2022/03/14 14:25:54;;;;;;;;;;;14.10;99.30;;;;;;5036918;28;19924;-92
2022/03/14 14:28:22;;;;;;;;;;;14.00;99.90;;;;;;5039407;28;19924;-90
2022/03/14 14:30:52;;;;;;;;;;;14.00;99.80;;;;;;5040607;28;19937;-91
2022/03/14 14:33:22;;;;;;;;;;;14.00;99.70;;;;;;5047661;28;19936;-91
2022/03/14 14:35:54;;;;;;;;;;;14.00;99.80;;;;;;5043012;28;19932;-91
2022/03/14 14:38:24;;;;;;;;;;;14.20;99.90;;;;;;5025322;28;19929;-92
2022/03/14 14:40:55;;;;;;;;;;;13.90;99.90;;;;;;5045400;28;19929;-91
2022/03/14 14:43:27;;;;;;;;;;;13.70;99.90;;;;;;5035699;28;19951;-92
2022/03/14 14:45:55;;;;;;;;;;;15.30;99.90;;;;;;5026677;28;19932;-91
2022/03/14 14:48:34;;;;;;;;;;;13.80;99.90;;;;;;5023979;28;19997;-92
2022/03/14 14:51:04;;;;;;;;;;;13.70;99.90;;;;;;5024372;28;20202;-92
2022/03/14 14:53:39;;;;;;;;;;;13.70;99.90;;;;;;5017235;28;19925;-93